RPC125 ZZZZ-RPVB
Flight info
| Callsign | RPC125 |
|---|---|
| Flight time | N/A |
| Altitude | 7500 |
| Route | VFR |
| Aircraft | PA24/L-SDFGR/C |
Departure
| Time | N/A |
|---|---|
| Airport | ZZZZ |
Arrival
| Time | 2026-05-04 07:26 |
|---|---|
| Airport | Bacolod-Silay International Airport (RPVB) |
| Time | Latitude | Longitude | Altitude | Speed | Heading |
|---|---|---|---|---|---|
| 2026-05-04 05:17 | 14.87658 | 120.50339 | 41 ft | 0 kts | 309° |
| 2026-05-04 05:24 | 14.87659 | 120.50338 | 42 ft | 2 kts | 308° |
| 2026-05-04 05:25 | 14.87676 | 120.50301 | 42 ft | 5 kts | 304° |
| 2026-05-04 05:25 | 14.87691 | 120.50280 | 42 ft | 0 kts | 306° |
| 2026-05-04 05:27 | 14.87692 | 120.50277 | 42 ft | 3 kts | 306° |
| 2026-05-04 05:28 | 14.88773 | 120.50885 | 271 ft | 99 kts | 40° |
| 2026-05-04 05:29 | 14.89159 | 120.51447 | 564 ft | 98 kts | 82° |
| 2026-05-04 05:29 | 14.89045 | 120.52174 | 803 ft | 110 kts | 121° |
| 2026-05-04 05:29 | 14.88508 | 120.52721 | 1021 ft | 110 kts | 149° |
| 2026-05-04 05:29 | 14.87779 | 120.53044 | 1173 ft | 118 kts | 158° |
| 2026-05-04 05:31 | 14.81624 | 120.54717 | 1856 ft | 144 kts | 166° |
| 2026-05-04 05:31 | 14.80618 | 120.54843 | 1864 ft | 147 kts | 171° |
| 2026-05-04 05:32 | 14.79601 | 120.54920 | 1909 ft | 146 kts | 173° |
| 2026-05-04 05:32 | 14.78584 | 120.54833 | 1952 ft | 148 kts | 186° |
| 2026-05-04 05:32 | 14.77578 | 120.54638 | 2032 ft | 147 kts | 188° |
| 2026-05-04 05:33 | 14.75558 | 120.54192 | 2109 ft | 150 kts | 187° |
| 2026-05-04 05:33 | 14.74528 | 120.53989 | 2158 ft | 150 kts | 186° |
| 2026-05-04 05:33 | 14.73511 | 120.53796 | 2203 ft | 147 kts | 186° |
| 2026-05-04 05:33 | 14.72502 | 120.53616 | 2253 ft | 147 kts | 185° |
| 2026-05-04 05:34 | 14.71482 | 120.53490 | 2300 ft | 148 kts | 179° |
| 2026-05-04 05:34 | 14.70442 | 120.53449 | 2319 ft | 151 kts | 176° |
| 2026-05-04 05:34 | 14.69397 | 120.53486 | 2354 ft | 150 kts | 172° |
| 2026-05-04 05:34 | 14.68359 | 120.53566 | 2383 ft | 149 kts | 171° |
| 2026-05-04 05:35 | 14.67331 | 120.53668 | 2426 ft | 148 kts | 169° |
| 2026-05-04 05:35 | 14.66303 | 120.53790 | 2434 ft | 148 kts | 168° |
| 2026-05-04 05:35 | 14.65281 | 120.53939 | 2447 ft | 148 kts | 167° |
| 2026-05-04 05:35 | 14.64263 | 120.54115 | 2460 ft | 148 kts | 166° |
| 2026-05-04 05:36 | 14.63261 | 120.54316 | 2473 ft | 148 kts | 165° |
| 2026-05-04 05:36 | 14.62252 | 120.54525 | 2473 ft | 148 kts | 164° |
| 2026-05-04 05:36 | 14.61246 | 120.54737 | 2502 ft | 147 kts | 165° |
| 2026-05-04 05:36 | 14.60239 | 120.54933 | 2507 ft | 148 kts | 165° |
| 2026-05-04 05:37 | 14.59231 | 120.55140 | 2520 ft | 147 kts | 166° |
| 2026-05-04 05:37 | 14.58211 | 120.55271 | 2525 ft | 147 kts | 171° |
| 2026-05-04 05:37 | 14.57188 | 120.55322 | 2542 ft | 147 kts | 174° |
| 2026-05-04 05:38 | 14.55122 | 120.55348 | 2556 ft | 149 kts | 176° |
| 2026-05-04 05:38 | 14.54082 | 120.55315 | 2582 ft | 150 kts | 178° |
| 2026-05-04 05:38 | 14.53031 | 120.55264 | 2596 ft | 151 kts | 179° |
| 2026-05-04 05:38 | 14.51980 | 120.55191 | 2623 ft | 152 kts | 181° |
| 2026-05-04 05:39 | 14.50917 | 120.55115 | 2602 ft | 154 kts | 176° |
| 2026-05-04 05:39 | 14.48833 | 120.55441 | 2615 ft | 152 kts | 162° |
| 2026-05-04 05:39 | 14.47797 | 120.55678 | 2601 ft | 153 kts | 163° |
| 2026-05-04 05:40 | 14.45681 | 120.56244 | 2485 ft | 159 kts | 154° |
| 2026-05-04 05:40 | 14.44660 | 120.56658 | 2477 ft | 155 kts | 149° |
| 2026-05-04 05:40 | 14.43723 | 120.57201 | 2439 ft | 154 kts | 139° |
| 2026-05-04 05:41 | 14.42852 | 120.57833 | 2416 ft | 152 kts | 139° |
| 2026-05-04 05:41 | 14.41991 | 120.58446 | 2413 ft | 150 kts | 140° |
| 2026-05-04 05:41 | 14.41132 | 120.59039 | 2387 ft | 148 kts | 140° |
| 2026-05-04 05:41 | 14.40323 | 120.59665 | 2415 ft | 143 kts | 133° |
| 2026-05-04 05:42 | 14.39613 | 120.60385 | 2417 ft | 144 kts | 128° |
| 2026-05-04 05:42 | 14.38985 | 120.61178 | 2451 ft | 142 kts | 121° |
| 2026-05-04 05:42 | 14.38471 | 120.62048 | 2488 ft | 143 kts | 115° |
| 2026-05-04 05:42 | 14.38010 | 120.62949 | 2495 ft | 141 kts | 112° |
| 2026-05-04 05:43 | 14.37614 | 120.63866 | 2497 ft | 139 kts | 109° |
| 2026-05-04 05:43 | 14.37244 | 120.64781 | 2502 ft | 138 kts | 110° |
| 2026-05-04 05:43 | 14.36870 | 120.65690 | 2496 ft | 139 kts | 110° |
| 2026-05-04 05:45 | 14.34175 | 120.72002 | 2521 ft | 134 kts | 112° |
| 2026-05-04 05:45 | 14.33755 | 120.72869 | 2543 ft | 135 kts | 112° |
| 2026-05-04 05:47 | 14.29136 | 120.77238 | 3133 ft | 128 kts | 155° |
| 2026-05-04 05:47 | 14.28308 | 120.77544 | 3318 ft | 125 kts | 154° |
| 2026-05-04 05:47 | 14.27474 | 120.77821 | 3459 ft | 127 kts | 156° |
| 2026-05-04 05:48 | 14.26624 | 120.78073 | 3628 ft | 126 kts | 156° |
| 2026-05-04 05:48 | 14.25781 | 120.78328 | 3810 ft | 127 kts | 156° |
| 2026-05-04 05:48 | 14.24934 | 120.78588 | 3988 ft | 127 kts | 155° |
| 2026-05-04 05:48 | 14.24095 | 120.78867 | 4181 ft | 127 kts | 154° |
| 2026-05-04 05:49 | 14.23255 | 120.79149 | 4373 ft | 127 kts | 154° |
| 2026-05-04 05:49 | 14.22422 | 120.79445 | 4548 ft | 127 kts | 154° |
| 2026-05-04 05:49 | 14.21586 | 120.79750 | 4680 ft | 128 kts | 154° |
| 2026-05-04 05:49 | 14.20752 | 120.80061 | 4839 ft | 127 kts | 153° |
| 2026-05-04 05:51 | 14.14771 | 120.82249 | 5528 ft | 139 kts | 152° |
| 2026-05-04 05:51 | 14.13875 | 120.82624 | 5528 ft | 142 kts | 154° |
| 2026-05-04 05:52 | 14.12911 | 120.82987 | 5524 ft | 152 kts | 154° |
| 2026-05-04 05:52 | 14.11903 | 120.83386 | 5527 ft | 157 kts | 152° |
| 2026-05-04 05:52 | 14.10893 | 120.83839 | 5522 ft | 159 kts | 152° |
| 2026-05-04 05:52 | 14.09869 | 120.84285 | 5519 ft | 160 kts | 152° |
| 2026-05-04 05:53 | 14.08839 | 120.84731 | 5519 ft | 161 kts | 152° |
| 2026-05-04 05:54 | 14.02057 | 120.87704 | 5517 ft | 161 kts | 153° |
| 2026-05-04 05:55 | 14.01017 | 120.88157 | 5515 ft | 160 kts | 152° |
| 2026-05-04 05:55 | 14.00002 | 120.88600 | 5508 ft | 161 kts | 152° |
| 2026-05-04 05:55 | 13.98968 | 120.89054 | 5508 ft | 162 kts | 152° |
| 2026-05-04 05:55 | 13.97939 | 120.89503 | 5598 ft | 155 kts | 152° |
| 2026-05-04 05:56 | 13.96981 | 120.89915 | 5782 ft | 146 kts | 152° |
| 2026-05-04 05:56 | 13.96056 | 120.90312 | 5944 ft | 143 kts | 152° |
| 2026-05-04 05:56 | 13.95140 | 120.90707 | 6026 ft | 143 kts | 152° |
| 2026-05-04 05:56 | 13.94228 | 120.91095 | 6180 ft | 141 kts | 152° |
| 2026-05-04 05:57 | 13.93323 | 120.91474 | 6328 ft | 140 kts | 152° |
| 2026-05-04 05:57 | 13.92418 | 120.91853 | 6455 ft | 141 kts | 152° |
| 2026-05-04 05:57 | 13.91508 | 120.92234 | 6576 ft | 141 kts | 152° |
| 2026-05-04 05:57 | 13.90600 | 120.92613 | 6679 ft | 141 kts | 152° |
| 2026-05-04 05:58 | 13.89690 | 120.92993 | 6797 ft | 141 kts | 152° |
| 2026-05-04 05:58 | 13.88783 | 120.93374 | 6915 ft | 141 kts | 152° |
| 2026-05-04 05:58 | 13.87869 | 120.93760 | 7025 ft | 142 kts | 152° |
| 2026-05-04 05:58 | 13.86954 | 120.94147 | 7158 ft | 142 kts | 152° |
| 2026-05-04 05:59 | 13.86041 | 120.94535 | 7266 ft | 143 kts | 152° |
| 2026-05-04 05:59 | 13.85117 | 120.94926 | 7373 ft | 143 kts | 152° |
| 2026-05-04 05:59 | 13.84208 | 120.95312 | 7463 ft | 145 kts | 152° |
| 2026-05-04 05:59 | 13.83257 | 120.95719 | 7472 ft | 151 kts | 152° |
| 2026-05-04 06:00 | 13.82277 | 120.96141 | 7489 ft | 154 kts | 152° |
| 2026-05-04 06:00 | 13.81276 | 120.96567 | 7490 ft | 157 kts | 152° |
| 2026-05-04 06:00 | 13.80264 | 120.97009 | 7487 ft | 158 kts | 150° |
| 2026-05-04 06:00 | 13.79271 | 120.97498 | 7487 ft | 158 kts | 149° |
| 2026-05-04 06:01 | 13.78269 | 120.97984 | 7485 ft | 160 kts | 149° |
| 2026-05-04 06:01 | 13.77254 | 120.98469 | 7470 ft | 160 kts | 149° |
| 2026-05-04 06:03 | 13.70377 | 121.02041 | 7488 ft | 157 kts | 147° |
| 2026-05-04 06:03 | 13.69412 | 121.02568 | 7488 ft | 157 kts | 147° |
| 2026-05-04 06:05 | 13.63994 | 121.05556 | 7486 ft | 155 kts | 144° |
| 2026-05-04 06:05 | 13.59916 | 121.08327 | 7497 ft | 155 kts | 141° |
| 2026-05-04 06:06 | 13.59022 | 121.08941 | 7502 ft | 155 kts | 141° |
| 2026-05-04 06:06 | 13.58131 | 121.09570 | 7502 ft | 156 kts | 139° |
| 2026-05-04 06:06 | 13.57261 | 121.10232 | 7503 ft | 155 kts | 139° |
| 2026-05-04 06:06 | 13.56390 | 121.10880 | 7503 ft | 155 kts | 139° |
| 2026-05-04 06:07 | 13.55522 | 121.11536 | 7500 ft | 155 kts | 138° |
| 2026-05-04 06:07 | 13.54656 | 121.12206 | 7501 ft | 156 kts | 139° |
| 2026-05-04 06:07 | 13.53788 | 121.12874 | 7501 ft | 156 kts | 138° |
| 2026-05-04 06:07 | 13.52929 | 121.13561 | 7499 ft | 156 kts | 137° |
| 2026-05-04 06:08 | 13.52077 | 121.14245 | 7494 ft | 155 kts | 137° |
| 2026-05-04 06:08 | 13.51231 | 121.14935 | 7495 ft | 155 kts | 137° |
| 2026-05-04 06:08 | 13.50383 | 121.15611 | 7497 ft | 155 kts | 138° |
| 2026-05-04 06:08 | 13.49533 | 121.16293 | 7498 ft | 155 kts | 137° |
| 2026-05-04 06:09 | 13.48683 | 121.16965 | 7499 ft | 154 kts | 137° |
| 2026-05-04 06:09 | 13.47826 | 121.17628 | 7501 ft | 154 kts | 137° |
| 2026-05-04 06:11 | 13.42120 | 121.22351 | 7508 ft | 159 kts | 137° |
| 2026-05-04 06:11 | 13.41259 | 121.23060 | 7508 ft | 159 kts | 137° |
| 2026-05-04 06:13 | 13.35224 | 121.28144 | 7507 ft | 160 kts | 137° |
| 2026-05-04 06:14 | 13.30136 | 121.32598 | 7506 ft | 161 kts | 135° |
| 2026-05-04 06:14 | 13.29303 | 121.33364 | 7507 ft | 161 kts | 135° |
| 2026-05-04 06:15 | 13.28470 | 121.34130 | 7502 ft | 161 kts | 135° |
| 2026-05-04 06:15 | 13.27636 | 121.34889 | 7504 ft | 160 kts | 135° |
| 2026-05-04 06:15 | 13.26802 | 121.35652 | 7505 ft | 161 kts | 135° |
| 2026-05-04 06:15 | 13.25962 | 121.36409 | 7504 ft | 161 kts | 135° |
| 2026-05-04 06:16 | 13.25115 | 121.37154 | 7509 ft | 160 kts | 135° |
| 2026-05-04 06:16 | 13.24270 | 121.37907 | 7507 ft | 161 kts | 135° |
| 2026-05-04 06:16 | 13.23431 | 121.38669 | 7506 ft | 161 kts | 136° |
| 2026-05-04 06:16 | 13.22585 | 121.39425 | 7508 ft | 161 kts | 135° |
| 2026-05-04 06:17 | 13.21753 | 121.40200 | 7505 ft | 161 kts | 135° |
| 2026-05-04 06:17 | 13.20918 | 121.40965 | 7505 ft | 160 kts | 135° |
| 2026-05-04 06:17 | 13.20081 | 121.41716 | 7498 ft | 160 kts | 136° |
| 2026-05-04 06:17 | 13.19248 | 121.42472 | 7499 ft | 160 kts | 135° |
| 2026-05-04 06:18 | 13.18413 | 121.43223 | 7503 ft | 160 kts | 135° |
| 2026-05-04 06:18 | 13.17577 | 121.43970 | 7504 ft | 159 kts | 135° |
| 2026-05-04 06:18 | 13.16738 | 121.44720 | 7504 ft | 160 kts | 135° |
| 2026-05-04 06:20 | 13.10905 | 121.49998 | 7502 ft | 159 kts | 137° |
| 2026-05-04 06:20 | 13.10042 | 121.50710 | 7500 ft | 160 kts | 137° |
| 2026-05-04 06:21 | 13.06623 | 121.53596 | 7501 ft | 159 kts | 137° |
| 2026-05-04 06:21 | 13.05769 | 121.54319 | 7501 ft | 159 kts | 137° |
| 2026-05-04 06:22 | 13.04915 | 121.55041 | 7503 ft | 159 kts | 137° |
| 2026-05-04 06:22 | 13.04058 | 121.55764 | 7501 ft | 160 kts | 137° |
| 2026-05-04 06:25 | 12.92923 | 121.65167 | 7494 ft | 159 kts | 137° |
| 2026-05-04 06:25 | 12.92067 | 121.65888 | 7492 ft | 159 kts | 137° |
| 2026-05-04 06:26 | 12.91220 | 121.66601 | 7490 ft | 159 kts | 137° |
| 2026-05-04 06:26 | 12.90365 | 121.67322 | 7492 ft | 159 kts | 137° |
| 2026-05-04 06:26 | 12.89509 | 121.68043 | 7493 ft | 159 kts | 137° |
| 2026-05-04 06:26 | 12.88652 | 121.68766 | 7493 ft | 159 kts | 137° |
| 2026-05-04 06:27 | 12.85227 | 121.71657 | 7493 ft | 160 kts | 137° |
| 2026-05-04 06:28 | 12.84371 | 121.72378 | 7494 ft | 159 kts | 137° |
| 2026-05-04 06:28 | 12.83514 | 121.73099 | 7494 ft | 159 kts | 137° |
| 2026-05-04 06:28 | 12.82656 | 121.73820 | 7494 ft | 160 kts | 137° |
| 2026-05-04 06:28 | 12.81798 | 121.74543 | 7491 ft | 160 kts | 137° |
| 2026-05-04 06:29 | 12.80941 | 121.75266 | 7491 ft | 160 kts | 137° |
| 2026-05-04 06:29 | 12.80082 | 121.75990 | 7490 ft | 160 kts | 137° |
| 2026-05-04 06:29 | 12.79224 | 121.76715 | 7491 ft | 160 kts | 137° |
| 2026-05-04 06:29 | 12.78367 | 121.77439 | 7494 ft | 160 kts | 137° |
| 2026-05-04 06:30 | 12.77508 | 121.78165 | 7495 ft | 160 kts | 137° |
| 2026-05-04 06:30 | 12.76644 | 121.78893 | 7491 ft | 161 kts | 137° |
| 2026-05-04 06:30 | 12.75774 | 121.79620 | 7492 ft | 161 kts | 137° |
| 2026-05-04 06:30 | 12.74906 | 121.80342 | 7495 ft | 160 kts | 137° |
| 2026-05-04 06:31 | 12.74042 | 121.81061 | 7491 ft | 160 kts | 137° |
| 2026-05-04 06:31 | 12.73179 | 121.81780 | 7490 ft | 160 kts | 137° |
| 2026-05-04 06:31 | 12.72316 | 121.82500 | 7489 ft | 160 kts | 137° |
| 2026-05-04 06:31 | 12.71454 | 121.83218 | 7490 ft | 160 kts | 137° |
| 2026-05-04 06:32 | 12.70593 | 121.83933 | 7491 ft | 159 kts | 137° |
| 2026-05-04 06:33 | 12.64549 | 121.88945 | 7490 ft | 160 kts | 137° |
| 2026-05-04 06:34 | 12.63683 | 121.89663 | 7489 ft | 160 kts | 137° |
| 2026-05-04 06:34 | 12.62821 | 121.90378 | 7488 ft | 160 kts | 137° |
| 2026-05-04 06:34 | 12.61958 | 121.91093 | 7488 ft | 160 kts | 137° |
| 2026-05-04 06:34 | 12.61093 | 121.91809 | 7488 ft | 160 kts | 137° |
| 2026-05-04 06:35 | 12.60228 | 121.92524 | 7488 ft | 160 kts | 137° |
| 2026-05-04 06:36 | 12.54171 | 121.97546 | 7488 ft | 160 kts | 137° |
| 2026-05-04 06:37 | 12.53304 | 121.98267 | 7488 ft | 160 kts | 137° |
| 2026-05-04 06:37 | 12.52448 | 121.98979 | 7488 ft | 160 kts | 137° |
| 2026-05-04 06:37 | 12.51584 | 121.99697 | 7488 ft | 160 kts | 137° |
| 2026-05-04 06:37 | 12.50717 | 122.00416 | 7487 ft | 160 kts | 137° |
| 2026-05-04 06:38 | 12.49850 | 122.01135 | 7485 ft | 160 kts | 137° |
| 2026-05-04 06:38 | 12.48981 | 122.01853 | 7485 ft | 160 kts | 137° |
| 2026-05-04 06:40 | 12.42856 | 122.06903 | 7487 ft | 162 kts | 140° |
| 2026-05-04 06:40 | 12.41955 | 122.07597 | 7486 ft | 162 kts | 140° |
| 2026-05-04 06:40 | 12.41059 | 122.08298 | 7482 ft | 162 kts | 140° |
| 2026-05-04 06:40 | 12.40169 | 122.09000 | 7484 ft | 161 kts | 139° |
| 2026-05-04 06:41 | 12.39296 | 122.09689 | 7485 ft | 161 kts | 140° |
| 2026-05-04 06:41 | 12.38412 | 122.10388 | 7484 ft | 161 kts | 140° |
| 2026-05-04 06:41 | 12.37528 | 122.11089 | 7484 ft | 161 kts | 140° |
| 2026-05-04 06:41 | 12.36643 | 122.11789 | 7484 ft | 161 kts | 140° |
| 2026-05-04 06:42 | 12.35760 | 122.12490 | 7485 ft | 161 kts | 140° |
| 2026-05-04 06:42 | 12.34876 | 122.13193 | 7485 ft | 161 kts | 140° |
| 2026-05-04 06:42 | 12.33978 | 122.13870 | 7486 ft | 161 kts | 144° |
| 2026-05-04 06:44 | 12.27252 | 122.17970 | 7483 ft | 161 kts | 147° |
| 2026-05-04 06:44 | 12.26286 | 122.18558 | 7483 ft | 161 kts | 147° |
| 2026-05-04 06:44 | 12.25321 | 122.19146 | 7482 ft | 162 kts | 147° |
| 2026-05-04 06:45 | 12.24355 | 122.19735 | 7482 ft | 161 kts | 147° |
| 2026-05-04 06:45 | 12.23391 | 122.20323 | 7482 ft | 161 kts | 147° |
| 2026-05-04 06:45 | 12.22424 | 122.20911 | 7482 ft | 161 kts | 147° |
| 2026-05-04 06:45 | 12.21459 | 122.21498 | 7482 ft | 161 kts | 147° |
| 2026-05-04 06:46 | 12.20494 | 122.22086 | 7483 ft | 161 kts | 147° |
| 2026-05-04 06:46 | 12.19528 | 122.22674 | 7482 ft | 161 kts | 147° |
| 2026-05-04 06:46 | 12.18576 | 122.23253 | 7482 ft | 161 kts | 147° |
| 2026-05-04 06:46 | 12.17610 | 122.23839 | 7482 ft | 161 kts | 147° |
| 2026-05-04 06:48 | 12.10854 | 122.27941 | 7481 ft | 161 kts | 147° |
| 2026-05-04 06:48 | 12.09891 | 122.28523 | 7482 ft | 161 kts | 147° |
| 2026-05-04 06:49 | 12.08929 | 122.29103 | 7483 ft | 160 kts | 147° |
| 2026-05-04 06:50 | 12.02223 | 122.33093 | 7482 ft | 159 kts | 147° |
| 2026-05-04 06:51 | 12.01270 | 122.33669 | 7483 ft | 159 kts | 147° |
| 2026-05-04 06:51 | 12.00311 | 122.34238 | 7482 ft | 159 kts | 147° |
| 2026-05-04 06:51 | 11.99356 | 122.34805 | 7482 ft | 159 kts | 147° |
| 2026-05-04 06:51 | 11.98400 | 122.35379 | 7483 ft | 160 kts | 147° |
| 2026-05-04 06:52 | 11.97440 | 122.35953 | 7479 ft | 160 kts | 147° |
| 2026-05-04 06:52 | 11.96481 | 122.36524 | 7479 ft | 160 kts | 147° |
| 2026-05-04 06:52 | 11.95534 | 122.37093 | 7480 ft | 160 kts | 147° |
| 2026-05-04 06:52 | 11.94574 | 122.37675 | 7498 ft | 160 kts | 147° |
| 2026-05-04 06:53 | 11.93614 | 122.38256 | 7499 ft | 161 kts | 147° |
| 2026-05-04 06:53 | 11.92651 | 122.38837 | 7499 ft | 161 kts | 147° |
| 2026-05-04 06:53 | 11.91691 | 122.39421 | 7500 ft | 161 kts | 147° |
| 2026-05-04 06:53 | 11.90733 | 122.40005 | 7500 ft | 161 kts | 147° |
| 2026-05-04 06:54 | 11.89769 | 122.40591 | 7501 ft | 161 kts | 147° |
| 2026-05-04 06:54 | 11.88810 | 122.41174 | 7502 ft | 161 kts | 146° |
| 2026-05-04 06:54 | 11.87860 | 122.41773 | 7503 ft | 161 kts | 146° |
| 2026-05-04 06:54 | 11.86909 | 122.42372 | 7504 ft | 161 kts | 146° |
| 2026-05-04 06:55 | 11.85957 | 122.42970 | 7506 ft | 160 kts | 146° |
| 2026-05-04 06:55 | 11.85005 | 122.43565 | 7505 ft | 160 kts | 146° |
| 2026-05-04 06:55 | 11.84054 | 122.44163 | 7506 ft | 161 kts | 146° |
| 2026-05-04 06:55 | 11.83104 | 122.44764 | 7507 ft | 161 kts | 146° |
| 2026-05-04 06:56 | 11.82151 | 122.45362 | 7507 ft | 160 kts | 146° |
| 2026-05-04 06:57 | 11.75510 | 122.49530 | 7512 ft | 160 kts | 146° |
| 2026-05-04 06:58 | 11.74559 | 122.50126 | 7511 ft | 161 kts | 146° |
| 2026-05-04 06:58 | 11.73602 | 122.50718 | 7511 ft | 161 kts | 146° |
| 2026-05-04 06:58 | 11.72646 | 122.51316 | 7511 ft | 161 kts | 146° |
| 2026-05-04 06:58 | 11.71687 | 122.51911 | 7511 ft | 161 kts | 146° |
| 2026-05-04 06:59 | 11.71059 | 122.52312 | 7512 ft | 161 kts | 145° |
| 2026-05-04 06:59 | 11.69795 | 122.53135 | 7510 ft | 161 kts | 144° |
| 2026-05-04 06:59 | 11.68861 | 122.53748 | 7510 ft | 161 kts | 144° |
| 2026-05-04 06:59 | 11.67916 | 122.54360 | 7511 ft | 161 kts | 144° |
| 2026-05-04 07:01 | 11.61595 | 122.58417 | 7509 ft | 161 kts | 145° |
| 2026-05-04 07:01 | 11.60646 | 122.59022 | 7508 ft | 161 kts | 145° |
| 2026-05-04 07:02 | 11.59702 | 122.59632 | 7507 ft | 161 kts | 144° |
| 2026-05-04 07:02 | 11.58757 | 122.60239 | 7508 ft | 161 kts | 145° |
| 2026-05-04 07:02 | 11.57811 | 122.60853 | 7507 ft | 161 kts | 145° |
| 2026-05-04 07:02 | 11.56866 | 122.61461 | 7507 ft | 161 kts | 144° |
| 2026-05-04 07:03 | 11.55924 | 122.62075 | 7502 ft | 161 kts | 144° |
| 2026-05-04 07:03 | 11.54976 | 122.62685 | 7499 ft | 161 kts | 144° |
| 2026-05-04 07:03 | 11.54025 | 122.63296 | 7498 ft | 161 kts | 144° |
| 2026-05-04 07:03 | 11.53073 | 122.63904 | 7498 ft | 161 kts | 145° |
| 2026-05-04 07:04 | 11.52125 | 122.64517 | 7497 ft | 161 kts | 144° |
| 2026-05-04 07:04 | 11.51179 | 122.65135 | 7496 ft | 161 kts | 144° |
| 2026-05-04 07:04 | 11.50235 | 122.65747 | 7495 ft | 161 kts | 145° |
| 2026-05-04 07:04 | 11.49293 | 122.66364 | 7495 ft | 161 kts | 144° |
| 2026-05-04 07:05 | 11.48358 | 122.66998 | 7492 ft | 161 kts | 144° |
| 2026-05-04 07:05 | 11.47423 | 122.67627 | 7486 ft | 162 kts | 144° |
| 2026-05-04 07:05 | 11.46480 | 122.68255 | 7481 ft | 161 kts | 143° |
| 2026-05-04 07:05 | 11.45564 | 122.68888 | 7446 ft | 158 kts | 142° |
| 2026-05-04 07:06 | 11.43795 | 122.70219 | 7296 ft | 158 kts | 140° |
| 2026-05-04 07:06 | 11.42929 | 122.70930 | 7236 ft | 158 kts | 138° |
| 2026-05-04 07:06 | 11.42075 | 122.71631 | 7161 ft | 158 kts | 139° |
| 2026-05-04 07:07 | 11.41236 | 122.72320 | 7094 ft | 156 kts | 137° |
| 2026-05-04 07:08 | 11.35657 | 122.77361 | 6664 ft | 151 kts | 133° |
| 2026-05-04 07:09 | 11.34886 | 122.78096 | 6593 ft | 152 kts | 132° |
| 2026-05-04 07:09 | 11.34096 | 122.78817 | 6516 ft | 153 kts | 136° |
| 2026-05-04 07:09 | 11.33273 | 122.79514 | 6455 ft | 154 kts | 135° |
| 2026-05-04 07:09 | 11.32486 | 122.80247 | 6386 ft | 152 kts | 133° |
| 2026-05-04 07:10 | 11.31707 | 122.80973 | 6317 ft | 152 kts | 135° |
| 2026-05-04 07:10 | 11.30894 | 122.81651 | 6251 ft | 151 kts | 136° |
| 2026-05-04 07:12 | 11.25808 | 122.86966 | 5744 ft | 153 kts | 131° |
| 2026-05-04 07:12 | 11.25082 | 122.87754 | 5655 ft | 151 kts | 128° |
| 2026-05-04 07:12 | 11.24355 | 122.88524 | 5547 ft | 153 kts | 131° |
| 2026-05-04 07:12 | 11.23558 | 122.89242 | 5450 ft | 153 kts | 137° |
| 2026-05-04 07:13 | 11.22702 | 122.89893 | 5391 ft | 154 kts | 140° |
| 2026-05-04 07:13 | 11.21814 | 122.90505 | 5302 ft | 154 kts | 143° |
| 2026-05-04 07:13 | 11.20912 | 122.91094 | 5219 ft | 154 kts | 143° |
| 2026-05-04 07:14 | 11.17263 | 122.93354 | 4929 ft | 152 kts | 143° |
| 2026-05-04 07:14 | 11.16390 | 122.93986 | 4824 ft | 153 kts | 139° |
| 2026-05-04 07:15 | 11.15556 | 122.94649 | 4711 ft | 153 kts | 140° |
| 2026-05-04 07:15 | 11.14687 | 122.95273 | 4616 ft | 153 kts | 142° |
| 2026-05-04 07:15 | 11.13800 | 122.95866 | 4490 ft | 152 kts | 143° |
| 2026-05-04 07:15 | 11.12938 | 122.96447 | 4366 ft | 150 kts | 141° |
| 2026-05-04 07:16 | 11.12062 | 122.97024 | 4220 ft | 151 kts | 142° |
| 2026-05-04 07:16 | 11.11164 | 122.97578 | 4086 ft | 152 kts | 148° |
| 2026-05-04 07:16 | 11.10200 | 122.98028 | 3936 ft | 153 kts | 155° |
| 2026-05-04 07:16 | 11.09194 | 122.98385 | 3782 ft | 153 kts | 156° |
| 2026-05-04 07:17 | 11.08188 | 122.98720 | 3658 ft | 152 kts | 157° |
| 2026-05-04 07:17 | 11.07170 | 122.99021 | 3534 ft | 153 kts | 165° |
| 2026-05-04 07:17 | 11.06113 | 122.99113 | 3395 ft | 152 kts | 173° |
| 2026-05-04 07:17 | 11.05061 | 122.99144 | 3300 ft | 152 kts | 173° |
| 2026-05-04 07:18 | 11.04005 | 122.99176 | 3155 ft | 151 kts | 173° |
| 2026-05-04 07:18 | 11.02941 | 122.99193 | 3072 ft | 153 kts | 174° |
| 2026-05-04 07:18 | 11.01895 | 122.99180 | 3009 ft | 149 kts | 175° |
| 2026-05-04 07:18 | 11.00849 | 122.99146 | 2921 ft | 152 kts | 175° |
| 2026-05-04 07:19 | 10.99782 | 122.99101 | 2866 ft | 154 kts | 177° |
| 2026-05-04 07:19 | 10.98708 | 122.99042 | 2809 ft | 155 kts | 178° |
| 2026-05-04 07:19 | 10.97640 | 122.99007 | 2734 ft | 153 kts | 175° |
| 2026-05-04 07:19 | 10.96578 | 122.99010 | 2650 ft | 152 kts | 174° |
| 2026-05-04 07:20 | 10.95518 | 122.99005 | 2552 ft | 152 kts | 172° |
| 2026-05-04 07:20 | 10.94461 | 122.99012 | 2479 ft | 151 kts | 171° |
| 2026-05-04 07:20 | 10.93414 | 122.99039 | 2393 ft | 149 kts | 169° |
| 2026-05-04 07:20 | 10.92384 | 122.99049 | 2230 ft | 150 kts | 174° |
| 2026-05-04 07:22 | 10.85189 | 122.99185 | 1483 ft | 141 kts | 156° |
| 2026-05-04 07:22 | 10.84270 | 122.99480 | 1486 ft | 136 kts | 155° |
| 2026-05-04 07:23 | 10.83388 | 122.99760 | 1459 ft | 132 kts | 156° |
| 2026-05-04 07:23 | 10.82505 | 122.99993 | 1409 ft | 129 kts | 162° |
| 2026-05-04 07:23 | 10.81617 | 123.00015 | 1361 ft | 131 kts | 175° |
| 2026-05-04 07:23 | 10.80704 | 122.99940 | 1334 ft | 131 kts | 175° |
| 2026-05-04 07:24 | 10.79802 | 122.99869 | 1278 ft | 128 kts | 181° |
| 2026-05-04 07:24 | 10.78951 | 122.99629 | 1218 ft | 128 kts | 197° |
| 2026-05-04 07:24 | 10.78152 | 122.99257 | 1147 ft | 123 kts | 199° |
| 2026-05-04 07:24 | 10.77376 | 122.98934 | 1038 ft | 119 kts | 197° |
| 2026-05-04 07:25 | 10.76592 | 122.98700 | 880 ft | 117 kts | 178° |
| 2026-05-04 07:26 | 10.76959 | 123.01492 | 92 ft | 46 kts | 32° |
| 2026-05-04 07:27 | 10.77158 | 123.01610 | 91 ft | 22 kts | 30° |
| 2026-05-04 07:27 | 10.77255 | 123.01656 | 88 ft | 11 kts | 1° |
| 2026-05-04 07:27 | 10.77307 | 123.01615 | 89 ft | 9 kts | 302° |
| 2026-05-04 07:27 | 10.77342 | 123.01554 | 88 ft | 13 kts | 301° |
| 2026-05-04 07:28 | 10.77366 | 123.01485 | 87 ft | 10 kts | 214° |
| 2026-05-04 07:28 | 10.77285 | 123.01439 | 82 ft | 13 kts | 210° |
| 2026-05-04 07:28 | 10.77257 | 123.01389 | 81 ft | 9 kts | 309° |
| 2026-05-04 07:28 | 10.77285 | 123.01375 | 81 ft | 2 kts | 33° |
| 2026-05-04 07:29 | 10.77286 | 123.01376 | 81 ft | 0 kts | 29° |